Time;durP1;ratioP1;P1;durP2;ratioP2;P2;SDS_P1;SDS_P2;PMS_P1;PMS_P2;Temp;Humidity;BMP_temperature;BMP_pressure;BME280_temperature;BME280_humidity;BME280_pressure;Samples;Min_cycle;Max_cycle;Signal;HPM_P1;HPM_P2
2023/12/30 00:00:18;;;;;;;1.90;1.85;;;;;;;4.48;64.16;100017.59;4432101;32;32587;-82
2023/12/30 00:02:48;;;;;;;0.10;0.10;;;;;;;4.33;64.64;100020.44;4445739;32;33707;-83
2023/12/30 00:05:16;;;;;;;4.43;2.17;;;;;;;4.45;64.49;100024.59;4447876;32;33656;-84
2023/12/30 00:07:44;;;;;;;4.35;2.55;;;;;;;4.32;64.45;100016.06;4461857;32;34483;-83
2023/12/30 00:10:13;;;;;;;1.10;1.10;;;;;;;4.43;64.02;100013.31;4433991;32;32392;-84
2023/12/30 00:12:40;;;;;;;0.73;0.73;;;;;;;4.48;64.15;100024.56;4445692;32;34596;-84
2023/12/30 00:15:08;;;;;;;2.33;2.12;;;;;;;4.57;63.78;100019.19;4448449;32;33375;-84
2023/12/30 00:17:36;;;;;;;0.68;0.68;;;;;;;4.44;64.33;100015.03;4435625;32;32622;-85
2023/12/30 00:20:05;;;;;;;1.02;0.62;;;;;;;4.43;63.68;100021.16;4459053;32;33222;-84
2023/12/30 00:22:33;;;;;;;1.27;1.27;;;;;;;4.46;63.36;100011.50;4446813;32;33795;-85
2023/12/30 00:25:01;;;;;;;2.95;2.75;;;;;;;4.52;62.95;100021.03;4445950;32;34411;-85
2023/12/30 00:27:28;;;;;;;1.55;1.17;;;;;;;4.42;63.13;100016.81;4449874;32;33653;-85
2023/12/30 00:29:56;;;;;;;2.22;2.10;;;;;;;4.74;62.67;100011.91;4434872;32;33050;-85
2023/12/30 00:32:24;;;;;;;2.15;2.05;;;;;;;4.53;62.52;100025.34;4436241;32;32568;-85
2023/12/30 00:34:51;;;;;;;1.30;1.20;;;;;;;4.11;63.87;100025.09;4449466;32;33666;-85
2023/12/30 00:37:20;;;;;;;3.30;3.00;;;;;;;4.21;63.62;100018.84;4460998;32;33401;-85
2023/12/30 00:39:50;;;;;;;4.03;3.53;;;;;;;4.21;64.12;100020.59;4457487;32;32415;-85
2023/12/30 00:42:19;;;;;;;1.87;1.77;;;;;;;4.11;63.99;100023.34;4459791;32;34512;-85
2023/12/30 00:44:46;;;;;;;4.97;3.78;;;;;;;4.14;64.07;100019.84;4448392;32;33176;-85
2023/12/30 00:47:14;;;;;;;3.53;3.22;;;;;;;4.24;64.14;100023.19;4434894;32;32552;-85
2023/12/30 00:49:43;;;;;;;1.15;1.15;;;;;;;4.27;64.17;100016.16;4444856;32;32941;-85
2023/12/30 00:52:10;;;;;;;2.45;2.35;;;;;;;4.26;63.43;100022.25;4446677;32;33510;-85
2023/12/30 00:54:38;;;;;;;2.80;1.70;;;;;;;4.28;64.24;100030.97;4459086;32;34022;-85
2023/12/30 00:57:16;;;;;;;2.10;2.00;;;;;;;4.33;63.86;100021.28;4446877;32;33173;-86
2023/12/30 00:59:44;;;;;;;0.88;0.85;;;;;;;4.30;64.20;100021.34;4460333;32;33964;-85
2023/12/30 01:02:12;;;;;;;1.05;1.05;;;;;;;4.21;64.27;100031.06;4446976;32;33656;-85
2023/12/30 01:04:40;;;;;;;1.30;1.30;;;;;;;4.21;64.10;100020.59;4458611;32;34763;-85
2023/12/30 01:07:09;;;;;;;0.95;0.95;;;;;;;4.28;63.89;100028.34;4453226;32;34016;-85
2023/12/30 01:09:37;;;;;;;2.47;2.37;;;;;;;4.33;63.78;100018.69;4445311;32;32301;-85
2023/12/30 01:12:05;;;;;;;2.30;1.40;;;;;;;4.36;63.27;100033.44;4454148;32;32698;-85
2023/12/30 01:14:33;;;;;;;2.85;2.67;;;;;;;4.32;63.85;100030.03;4452939;32;32974;-84
2023/12/30 01:17:01;;;;;;;2.45;2.28;;;;;;;4.34;62.98;100032.63;4432033;32;32995;-82
2023/12/30 01:19:28;;;;;;;1.05;1.05;;;;;;;4.29;62.94;100030.06;4445678;32;31756;-82
2023/12/30 01:21:57;;;;;;;4.60;4.30;;;;;;;4.37;62.95;100027.34;4432500;32;33013;-82
2023/12/30 01:24:26;;;;;;;3.58;3.33;;;;;;;4.30;63.35;100023.94;4458937;32;33828;-82
2023/12/30 01:26:53;;;;;;;3.70;1.60;;;;;;;4.35;63.15;100035.19;4454832;32;32921;-82
2023/12/30 01:29:22;;;;;;;0.93;0.82;;;;;;;4.28;63.39;100025.72;4434486;32;33863;-82
2023/12/30 01:31:49;;;;;;;2.05;1.90;;;;;;;4.32;63.13;100031.75;4459952;32;33910;-82
2023/12/30 01:34:17;;;;;;;1.67;1.58;;;;;;;4.37;62.45;100028.22;4444882;32;33964;-82
2023/12/30 01:36:45;;;;;;;2.17;2.05;;;;;;;4.25;62.86;100031.00;4461196;32;33512;-82
2023/12/30 01:39:13;;;;;;;4.57;4.18;;;;;;;4.26;62.68;100018.78;4434316;32;33855;-82
2023/12/30 01:41:41;;;;;;;3.40;3.10;;;;;;;4.34;63.03;100025.62;4446373;32;34070;-82
2023/12/30 01:44:09;;;;;;;1.12;1.12;;;;;;;4.09;63.96;100022.50;4458651;32;34724;-82
2023/12/30 01:46:37;;;;;;;2.50;2.37;;;;;;;3.96;64.34;100014.84;4450276;32;33994;-82
2023/12/30 01:49:05;;;;;;;0.62;0.62;;;;;;;4.06;63.41;100016.47;4445741;32;34149;-83
2023/12/30 01:51:34;;;;;;;2.08;1.77;;;;;;;4.12;63.91;100018.97;4446858;32;33210;-84
2023/12/30 01:54:03;;;;;;;2.65;1.52;;;;;;;4.07;63.57;100005.12;4444956;32;33008;-84
2023/12/30 01:56:31;;;;;;;1.58;1.37;;;;;;;4.04;63.59;100011.25;4461664;32;32967;-84
2023/12/30 01:59:00;;;;;;;0.55;0.55;;;;;;;4.05;63.63;100004.28;4448747;32;33590;-84
2023/12/30 02:01:28;;;;;;;1.40;1.30;;;;;;;4.00;63.28;100003.50;4447454;32;34358;-82
2023/12/30 02:03:56;;;;;;;1.87;1.77;;;;;;;4.24;62.74;99997.91;4448161;32;33320;-82
2023/12/30 02:06:24;;;;;;;0.62;0.62;;;;;;;3.85;63.80;99994.97;4434873;32;32138;-83
2023/12/30 02:08:52;;;;;;;0.82;0.82;;;;;;;4.39;62.69;99996.81;4450022;32;32919;-83
2023/12/30 02:11:20;;;;;;;0.57;0.57;;;;;;;3.84;64.06;99994.97;4450982;32;34088;-83
2023/12/30 02:13:48;;;;;;;0.65;0.65;;;;;;;3.44;66.25;99989.41;4433863;32;33976;-82
2023/12/30 02:16:16;;;;;;;0.50;0.50;;;;;;;4.22;64.27;99997.03;4445825;32;33372;-82
2023/12/30 02:18:44;;;;;;;0.20;0.20;;;;;;;3.60;65.46;99989.19;4461532;32;33968;-82
2023/12/30 02:21:12;;;;;;;5.05;1.35;;;;;;;3.53;66.72;99981.47;4434914;32;32780;-82
2023/12/30 02:23:40;;;;;;;1.08;1.08;;;;;;;3.68;65.23;99999.53;4463040;32;33284;-82
2023/12/30 02:26:08;;;;;;;0.45;0.45;;;;;;;3.10;68.46;99979.34;4446075;32;32515;-82
2023/12/30 02:28:36;;;;;;;1.08;0.98;;;;;;;3.43;67.68;99998.12;4459900;32;33432;-83
2023/12/30 02:31:04;;;;;;;0.82;0.82;;;;;;;3.60;66.20;100003.97;4463038;32;33909;-83
2023/12/30 02:33:32;;;;;;;0.15;0.15;;;;;;;3.59;66.82;99979.63;4447179;32;33881;-83
2023/12/30 02:36:00;;;;;;;1.50;1.35;;;;;;;4.22;64.91;99991.81;4449268;32;34114;-83
2023/12/30 02:38:27;;;;;;;3.75;3.45;;;;;;;3.39;67.15;99991.19;4441558;32;33212;-82
2023/12/30 02:40:55;;;;;;;0.13;0.13;;;;;;;3.41;67.32;99973.75;4434139;32;33618;-82
2023/12/30 02:43:24;;;;;;;1.73;1.60;;;;;;;3.84;65.35;99995.84;4460359;32;36232;-83
2023/12/30 02:45:55;;;;;;;0.08;0.08;;;;;;;3.49;67.58;99993.69;4435091;32;32612;-83
2023/12/30 02:48:23;;;;;;;0.62;0.62;;;;;;;3.40;68.54;99992.91;4460822;32;34068;-83
2023/12/30 02:50:51;;;;;;;0.37;0.37;;;;;;;4.00;66.22;99996.50;4462273;32;34509;-84
2023/12/30 02:53:18;;;;;;;0.57;0.57;;;;;;;3.49;68.16;99988.44;4460338;32;34581;-82
2023/12/30 02:55:46;;;;;;;0.20;0.20;;;;;;;3.57;68.13;100001.44;4436955;32;33285;-81
2023/12/30 02:58:14;;;;;;;0.10;0.10;;;;;;;3.71;67.44;99998.66;4450491;32;33434;-82
2023/12/30 03:00:42;;;;;;;0.45;0.45;;;;;;;3.59;68.16;99999.66;4444716;32;32803;-81
2023/12/30 03:03:10;;;;;;;1.25;1.15;;;;;;;3.94;67.34;99987.88;4435006;32;35614;-82
2023/12/30 03:05:38;;;;;;;2.08;1.50;;;;;;;3.82;66.33;99991.53;4448684;32;33213;-82
2023/12/30 03:08:06;;;;;;;0.88;0.80;;;;;;;3.68;67.78;99988.22;4450440;32;32845;-82
2023/12/30 03:10:34;;;;;;;0.10;0.10;;;;;;;4.01;66.88;99986.91;4446640;32;33285;-82
2023/12/30 03:13:03;;;;;;;1.65;1.50;;;;;;;4.02;66.59;99986.03;4461052;32;33617;-82
2023/12/30 03:15:31;;;;;;;1.55;0.82;;;;;;;3.87;66.40;99979.28;4447442;32;32549;-82
2023/12/30 03:17:59;;;;;;;1.30;1.27;;;;;;;4.15;66.37;99984.09;4449046;32;33082;-82
2023/12/30 03:20:27;;;;;;;0.20;0.20;;;;;;;3.98;66.38;99979.97;4460551;32;34265;-83
2023/12/30 03:22:54;;;;;;;0.00;0.00;;;;;;;4.05;66.49;99979.00;4465387;32;34386;-81
2023/12/30 03:25:23;;;;;;;3.17;0.30;;;;;;;4.01;66.45;99989.53;4446945;32;34011;-81
2023/12/30 03:27:51;;;;;;;0.47;0.47;;;;;;;4.01;67.09;99989.53;4448223;32;33297;-81
2023/12/30 03:30:18;;;;;;;1.12;1.02;;;;;;;4.13;66.25;99981.53;4449562;32;33198;-81
2023/12/30 03:32:46;;;;;;;0.10;0.10;;;;;;;4.15;66.20;99987.59;4460036;32;34010;-82
2023/12/30 03:35:16;;;;;;;0.95;0.95;;;;;;;4.30;65.96;99983.88;4435268;32;33002;-82
2023/12/30 03:37:44;;;;;;;0.20;0.15;;;;;;;4.29;65.77;99988.25;4461119;32;34337;-84
2023/12/30 03:40:13;;;;;;;0.80;0.80;;;;;;;4.36;65.17;99989.84;4461636;32;33870;-84
2023/12/30 03:42:40;;;;;;;0.20;0.20;;;;;;;4.60;63.53;99987.75;4447820;32;33014;-84
2023/12/30 03:45:08;;;;;;;0.57;0.57;;;;;;;4.21;64.83;99974.41;4449431;32;34002;-84
2023/12/30 03:47:36;;;;;;;1.25;1.00;;;;;;;4.05;65.80;99988.59;4447817;32;33092;-84
2023/12/30 03:50:05;;;;;;;2.62;0.98;;;;;;;4.25;64.23;99991.78;4447754;32;33512;-84
2023/12/30 03:52:32;;;;;;;0.93;0.93;;;;;;;3.84;65.93;99976.69;4460158;32;33660;-83
2023/12/30 03:55:00;;;;;;;1.87;1.65;;;;;;;4.05;66.20;99999.06;4450922;32;33249;-83
2023/12/30 03:57:28;;;;;;;0.80;0.80;;;;;;;4.31;64.64;99996.06;4435650;32;32971;-83
2023/12/30 03:59:56;;;;;;;0.73;0.73;;;;;;;3.43;68.20;99998.97;4466070;32;34278;-83
2023/12/30 04:02:24;;;;;;;0.47;0.47;;;;;;;3.19;69.96;99989.69;4448261;32;34698;-83
2023/12/30 04:04:53;;;;;;;2.37;2.17;;;;;;;4.04;67.00;100003.44;4460310;32;34502;-82
2023/12/30 04:07:21;;;;;;;1.45;1.35;;;;;;;3.75;67.43;99995.97;4450267;32;33832;-82
2023/12/30 04:09:48;;;;;;;0.00;0.00;;;;;;;3.49;68.04;99982.38;4461490;32;33518;-83
2023/12/30 04:12:16;;;;;;;0.80;0.80;;;;;;;3.93;68.79;100001.81;4461687;32;33691;-83
2023/12/30 04:14:44;;;;;;;1.20;1.10;;;;;;;3.95;67.65;99993.09;4446148;32;33508;-83
2023/12/30 04:17:12;;;;;;;0.40;0.40;;;;;;;3.40;69.70;99982.47;4447071;32;31447;-82
2023/12/30 04:19:40;;;;;;;1.95;1.08;;;;;;;3.93;69.53;99997.47;4435655;32;34884;-82
2023/12/30 04:22:08;;;;;;;2.10;0.90;;;;;;;4.11;67.61;100002.44;4460023;32;33990;-82
2023/12/30 04:24:35;;;;;;;0.52;0.52;;;;;;;3.45;69.39;99991.13;4459695;32;33797;-82
2023/12/30 04:27:03;;;;;;;0.10;0.10;;;;;;;3.55;70.17;99997.94;4461363;32;32886;-82
2023/12/30 04:29:31;;;;;;;0.47;0.47;;;;;;;4.03;68.19;99998.19;4462513;32;32739;-82
2023/12/30 04:31:59;;;;;;;0.40;0.40;;;;;;;3.88;68.67;99998.41;4449111;32;33556;-82
2023/12/30 04:34:26;;;;;;;0.70;0.70;;;;;;;4.15;68.55;100005.03;4447043;32;33337;-82
2023/12/30 04:36:54;;;;;;;3.42;0.80;;;;;;;4.35;66.39;99987.28;4460154;32;33523;-82
2023/12/30 04:39:22;;;;;;;0.37;0.37;;;;;;;3.88;67.89;99990.56;4463431;32;33437;-82
2023/12/30 04:41:55;;;;;;;2.85;1.48;;;;;;;4.37;67.35;100009.91;4433961;32;32656;-82
2023/12/30 04:44:23;;;;;;;2.37;0.62;;;;;;;3.96;68.48;100000.03;4460723;32;34268;-83
2023/12/30 04:46:51;;;;;;;0.30;0.30;;;;;;;3.64;69.76;100003.06;4433785;32;32634;-83
2023/12/30 04:49:18;;;;;;;0.40;0.40;;;;;;;4.28;68.00;100012.66;4460479;32;32872;-83
2023/12/30 04:51:46;;;;;;;3.37;1.08;;;;;;;3.70;69.31;99997.75;4446996;32;34759;-83
2023/12/30 04:54:14;;;;;;;0.45;0.45;;;;;;;3.69;70.73;100003.88;4449086;32;33464;-83
2023/12/30 04:56:42;;;;;;;2.50;1.25;;;;;;;4.55;68.08;100023.56;4448338;32;33303;-83
2023/12/30 04:59:11;;;;;;;0.25;0.13;;;;;;;4.27;67.70;100005.72;4449536;32;33248;-83
2023/12/30 05:01:39;;;;;;;0.37;0.37;;;;;;;4.28;68.87;100012.66;4459262;32;33987;-83
2023/12/30 05:04:07;;;;;;;1.08;0.75;;;;;;;4.70;66.45;100015.50;4467235;32;34534;-83
2023/12/30 05:06:34;;;;;;;0.03;0.03;;;;;;;4.24;67.06;100021.44;4463690;32;33723;-83
2023/12/30 05:09:04;;;;;;;4.57;3.35;;;;;;;4.08;68.55;100020.78;4460167;32;34055;-83
2023/12/30 05:11:31;;;;;;;0.15;0.15;;;;;;;4.42;66.88;100027.28;4453673;32;33468;-83
2023/12/30 05:13:59;;;;;;;1.58;1.58;;;;;;;4.03;67.40;100016.50;4433157;32;32910;-84
2023/12/30 05:16:27;;;;;;;0.47;0.47;;;;;;;4.28;67.31;100017.88;4434898;32;32542;-83
2023/12/30 05:18:55;;;;;;;2.33;2.12;;;;;;;4.36;67.01;100026.47;4450364;32;34036;-83
2023/12/30 05:21:22;;;;;;;0.70;0.45;;;;;;;4.47;67.28;100038.53;4460613;32;34023;-83
2023/12/30 05:23:51;;;;;;;2.10;1.90;;;;;;;4.40;67.09;100021.19;4440195;32;33977;-83
2023/12/30 05:26:18;;;;;;;1.80;0.88;;;;;;;4.35;67.13;100016.91;4467606;32;34162;-82
2023/12/30 05:28:46;;;;;;;1.33;1.30;;;;;;;4.70;65.97;100025.97;4434134;32;32796;-83
2023/12/30 05:31:14;;;;;;;0.60;0.60;;;;;;;4.37;67.49;100020.37;4449612;32;33163;-82
2023/12/30 05:33:42;;;;;;;3.45;2.17;;;;;;;4.17;67.92;100035.47;4462332;32;32667;-83
2023/12/30 05:36:09;;;;;;;0.75;0.75;;;;;;;4.45;67.33;100029.84;4449879;32;32438;-82
2023/12/30 05:38:37;;;;;;;0.37;0.37;;;;;;;4.69;65.39;100032.06;4449601;32;33890;-82
2023/12/30 05:41:05;;;;;;;1.30;1.23;;;;;;;4.34;65.83;100030.84;4455025;32;32661;-82
2023/12/30 05:43:32;;;;;;;1.37;1.35;;;;;;;4.33;66.43;100029.12;4462038;32;34176;-82
2023/12/30 05:46:00;;;;;;;1.67;1.55;;;;;;;4.78;65.40;100037.16;4450029;32;33078;-82
2023/12/30 05:48:28;;;;;;;0.57;0.57;;;;;;;4.20;67.14;100034.56;4463109;32;33485;-82
2023/12/30 05:50:55;;;;;;;1.65;1.12;;;;;;;4.01;67.20;100031.34;4450346;32;34081;-82
2023/12/30 05:53:23;;;;;;;0.60;0.60;;;;;;;4.68;65.42;100053.03;4449830;32;32735;-82
2023/12/30 05:55:52;;;;;;;0.00;0.00;;;;;;;4.18;66.50;100045.06;4452498;32;32775;-82
2023/12/30 05:58:20;;;;;;;0.10;0.10;;;;;;;4.07;67.13;100047.78;4437617;32;35236;-82
2023/12/30 06:00:48;;;;;;;1.70;1.05;;;;;;;4.58;66.19;100053.16;4464737;32;34562;-82
2023/12/30 06:03:16;;;;;;;0.00;0.00;;;;;;;4.32;66.70;100047.44;4449689;32;34688;-82
2023/12/30 06:05:44;;;;;;;1.12;1.12;;;;;;;4.08;66.74;100051.25;4449777;32;33758;-83
2023/12/30 06:08:12;;;;;;;0.55;0.55;;;;;;;4.54;65.25;100061.94;4448517;32;33871;-82
2023/12/30 06:10:39;;;;;;;0.90;0.90;;;;;;;4.12;66.71;100061.66;4450612;32;32991;-82
2023/12/30 06:13:07;;;;;;;1.15;1.10;;;;;;;4.16;66.86;100052.03;4449677;32;33521;-82
2023/12/30 06:15:35;;;;;;;0.50;0.50;;;;;;;4.21;66.40;100058.06;4436295;32;32205;-81
2023/12/30 06:18:03;;;;;;;1.42;1.33;;;;;;;4.26;65.61;100058.84;4449188;32;32650;-82
2023/12/30 06:20:31;;;;;;;0.65;0.65;;;;;;;4.27;65.70;100046.66;4448253;32;33917;-82
2023/12/30 06:22:58;;;;;;;0.68;0.68;;;;;;;4.25;65.89;100049.28;4460799;32;33655;-83
2023/12/30 06:25:27;;;;;;;1.08;1.02;;;;;;;4.64;65.27;100060.03;4463486;32;34908;-83
2023/12/30 06:27:54;;;;;;;0.37;0.30;;;;;;;4.68;64.95;100058.25;4462952;32;34748;-83
2023/12/30 06:30:22;;;;;;;2.50;0.95;;;;;;;4.32;65.46;100061.41;4447098;32;33661;-83
2023/12/30 06:32:50;;;;;;;0.93;0.90;;;;;;;4.17;66.20;100069.44;4450319;32;32598;-83
2023/12/30 06:35:18;;;;;;;0.68;0.68;;;;;;;4.33;65.84;100068.34;4469278;32;34082;-83
2023/12/30 06:37:47;;;;;;;3.83;2.47;;;;;;;4.22;65.69;100065.00;4452258;32;33261;-83
2023/12/30 06:40:15;;;;;;;3.00;2.80;;;;;;;4.27;65.87;100073.69;4427274;32;34646;-83
2023/12/30 06:42:45;;;;;;;1.23;1.12;;;;;;;4.29;66.15;100071.88;4448331;32;33861;-82
2023/12/30 06:45:13;;;;;;;3.60;2.90;;;;;;;4.42;65.03;100071.72;4462312;32;33084;-82
2023/12/30 06:47:42;;;;;;;0.85;0.85;;;;;;;4.17;65.64;100071.19;4464986;32;33926;-81
2023/12/30 06:50:14;;;;;;;1.10;0.85;;;;;;;4.07;66.14;100080.91;4448177;32;34391;-82
2023/12/30 06:52:45;;;;;;;2.17;2.08;;;;;;;4.60;65.04;100081.91;4461656;32;33640;-81
2023/12/30 06:55:13;;;;;;;0.60;0.60;;;;;;;4.33;65.13;100094.50;4451650;32;32504;-81
2023/12/30 06:57:53;;;;;;;1.25;1.10;;;;;;;4.17;65.23;100087.72;4452670;32;33530;-81
2023/12/30 07:00:21;;;;;;;0.57;0.57;;;;;;;3.91;66.80;100101.13;4449018;32;33986;-81
2023/12/30 07:02:48;;;;;;;2.20;1.10;;;;;;;3.87;67.40;100095.97;4460431;32;34033;-81
2023/12/30 07:05:17;;;;;;;3.53;1.83;;;;;;;4.17;66.25;100103.41;4439288;32;32448;-82
2023/12/30 07:07:44;;;;;;;1.00;1.00;;;;;;;4.23;66.65;100110.34;4438504;32;32921;-83
2023/12/30 07:10:12;;;;;;;1.75;1.65;;;;;;;4.28;66.21;100106.75;4448966;32;33971;-83
2023/12/30 07:12:40;;;;;;;2.62;2.40;;;;;;;4.19;66.55;100119.94;4474976;32;33497;-83
2023/12/30 07:15:09;;;;;;;3.95;1.52;;;;;;;4.36;66.35;100125.81;4448819;32;33200;-82
2023/12/30 07:17:37;;;;;;;1.65;1.55;;;;;;;4.36;66.60;100131.03;4448039;32;32324;-82
2023/12/30 07:20:06;;;;;;;1.65;1.62;;;;;;;4.48;65.97;100126.53;4460192;32;33635;-82
2023/12/30 07:22:33;;;;;;;2.60;2.50;;;;;;;4.41;65.93;100127.50;4447693;32;32761;-82
2023/12/30 07:25:02;;;;;;;2.05;1.95;;;;;;;4.47;66.51;100135.28;4450278;32;32714;-82
2023/12/30 07:27:30;;;;;;;0.68;0.68;;;;;;;4.48;66.27;100144.84;4465929;32;34714;-83
2023/12/30 07:29:58;;;;;;;2.47;2.37;;;;;;;4.51;66.10;100136.94;4459962;32;34390;-82
2023/12/30 07:32:26;;;;;;;1.90;1.85;;;;;;;4.47;65.72;100137.91;4460169;32;34064;-83
2023/12/30 07:34:53;;;;;;;1.00;1.00;;;;;;;4.74;65.74;100139.25;4437959;32;33044;-83
2023/12/30 07:37:21;;;;;;;4.05;3.45;;;;;;;4.63;65.51;100128.94;4449779;32;34322;-83
2023/12/30 07:39:49;;;;;;;3.00;2.55;;;;;;;4.60;66.62;100137.72;4474511;32;34109;-83
2023/12/30 07:42:17;;;;;;;1.55;1.25;;;;;;;4.75;66.12;100138.38;4448855;32;33701;-83
2023/12/30 07:44:48;;;;;;;3.50;3.30;;;;;;;4.85;66.21;100145.19;4450645;32;34443;-83
2023/12/30 07:47:15;;;;;;;2.55;2.37;;;;;;;4.91;65.96;100139.00;4450049;32;33310;-82
2023/12/30 07:49:43;;;;;;;7.45;1.55;;;;;;;4.85;66.50;100139.97;4449248;32;32510;-83
2023/12/30 07:52:11;;;;;;;2.83;2.60;;;;;;;5.24;65.75;100141.09;4449000;32;33896;-83
2023/12/30 07:54:40;;;;;;;4.65;3.53;;;;;;;5.29;65.80;100148.87;4458064;32;32367;-83
2023/12/30 07:57:08;;;;;;;3.28;3.08;;;;;;;5.20;67.00;100151.63;4447791;32;33207;-83
2023/12/30 07:59:36;;;;;;;3.60;3.30;;;;;;;5.17;67.47;100147.28;4446862;32;34202;-83
2023/12/30 08:02:04;;;;;;;4.78;3.20;;;;;;;5.42;67.05;100139.91;4463029;32;33224;-84
2023/12/30 08:04:33;;;;;;;1.58;1.48;;;;;;;5.53;66.83;100153.69;4451377;32;33387;-83
2023/12/30 08:07:01;;;;;;;3.45;3.20;;;;;;;5.90;66.23;100140.78;4449871;32;34560;-83
2023/12/30 08:09:28;;;;;;;2.95;2.58;;;;;;;5.92;66.78;100150.38;4450653;32;33232;-82
2023/12/30 08:11:56;;;;;;;2.72;1.95;;;;;;;6.34;65.69;100152.16;4463263;32;34462;-83
2023/12/30 08:14:29;;;;;;;2.45;2.30;;;;;;;6.16;66.49;100149.91;4453601;32;33002;-82
2023/12/30 08:17:01;;;;;;;1.90;1.52;;;;;;;6.26;66.93;100154.06;4461425;32;33933;-83
2023/12/30 08:19:29;;;;;;;4.07;3.73;;;;;;;6.01;68.21;100142.34;4439427;32;34191;-83
2023/12/30 08:21:57;;;;;;;2.78;2.42;;;;;;;6.43;67.39;100155.50;4461104;32;34254;-84
2023/12/30 08:24:28;;;;;;;6.70;4.32;;;;;;;6.79;66.03;100159.94;4451166;32;34152;-83
2023/12/30 08:26:55;;;;;;;2.22;2.12;;;;;;;6.61;66.64;100165.59;4460215;32;33658;-84
2023/12/30 08:29:24;;;;;;;2.85;2.50;;;;;;;6.44;68.48;100175.56;4463396;32;33993;-82
2023/12/30 08:31:51;;;;;;;4.30;2.35;;;;;;;6.44;68.86;100175.56;4438002;32;33133;-83
2023/12/30 08:34:21;;;;;;;1.23;1.23;;;;;;;6.86;67.64;100169.41;4447207;32;32922;-83
2023/12/30 08:36:49;;;;;;;3.33;1.62;;;;;;;7.08;67.07;100172.41;4461514;32;34540;-83
2023/12/30 08:39:17;;;;;;;2.22;2.10;;;;;;;7.08;67.52;100177.66;4457138;32;33876;-86
2023/12/30 08:41:44;;;;;;;2.37;2.22;;;;;;;7.16;67.71;100169.56;4459722;32;33508;-83
2023/12/30 08:44:13;;;;;;;4.72;4.32;;;;;;;7.15;68.27;100170.47;4437926;32;32624;-82
2023/12/30 08:46:40;;;;;;;9.45;5.37;;;;;;;7.48;67.48;100167.94;4472663;32;32898;-83
2023/12/30 08:49:08;;;;;;;5.40;2.78;;;;;;;7.67;67.46;100166.56;4457801;32;33925;-82
2023/12/30 08:51:37;;;;;;;1.37;1.37;;;;;;;7.50;67.87;100176.63;4434713;32;33644;-82
2023/12/30 08:54:05;;;;;;;3.87;3.53;;;;;;;7.53;68.02;100166.03;4448600;32;33187;-82
2023/12/30 08:56:34;;;;;;;2.50;2.37;;;;;;;7.50;69.16;100168.75;4449617;32;32790;-81
2023/12/30 08:59:02;;;;;;;2.90;2.75;;;;;;;8.22;67.71;100170.34;4447546;32;34160;-81
2023/12/30 09:01:30;;;;;;;4.18;3.87;;;;;;;8.63;66.81;100173.56;4463134;32;33794;-81
2023/12/30 09:03:59;;;;;;;4.12;3.72;;;;;;;8.69;66.69;100170.75;4449386;32;33027;-81
2023/12/30 09:06:29;;;;;;;3.90;3.47;;;;;;;8.63;67.16;100176.19;4439948;32;33022;-81
2023/12/30 09:08:57;;;;;;;2.30;2.17;;;;;;;8.85;66.33;100185.16;4451122;32;33300;-81
2023/12/30 09:11:25;;;;;;;5.12;4.47;;;;;;;8.73;66.72;100188.16;4460411;32;34367;-81
2023/12/30 09:13:54;;;;;;;4.25;3.35;;;;;;;8.44;67.32;100187.25;4461356;32;33437;-82
2023/12/30 09:16:22;;;;;;;6.65;3.75;;;;;;;8.35;67.47;100187.47;4446907;32;32927;-82
2023/12/30 09:18:49;;;;;;;4.12;3.12;;;;;;;8.40;67.60;100180.38;4458685;32;33345;-82
2023/12/30 09:21:17;;;;;;;2.08;1.98;;;;;;;8.36;67.39;100177.84;4436749;32;34455;-82
2023/12/30 09:23:45;;;;;;;4.60;4.15;;;;;;;8.61;66.95;100184.13;4450356;32;33643;-82
2023/12/30 09:26:16;;;;;;;3.45;3.17;;;;;;;8.80;66.34;100194.13;4448856;32;33140;-82
2023/12/30 09:28:43;;;;;;;3.10;2.83;;;;;;;8.37;67.21;100190.97;4461967;32;33303;-82
2023/12/30 09:31:11;;;;;;;2.72;2.45;;;;;;;8.38;66.91;100184.81;4432315;32;33019;-82
2023/12/30 09:33:39;;;;;;;1.92;1.60;;;;;;;8.54;66.95;100179.94;4448307;32;33242;-82
2023/12/30 09:36:07;;;;;;;2.65;2.45;;;;;;;8.68;66.56;100179.53;4449391;32;33263;-82
2023/12/30 09:38:35;;;;;;;4.65;3.53;;;;;;;8.60;66.65;100184.19;4459413;32;34707;-82
2023/12/30 09:41:05;;;;;;;2.20;2.10;;;;;;;8.85;66.70;100179.91;4446528;32;34152;-82
2023/12/30 09:43:33;;;;;;;2.90;2.67;;;;;;;8.95;66.48;100162.91;4459151;32;34704;-82
2023/12/30 09:46:01;;;;;;;5.30;3.03;;;;;;;9.07;66.87;100172.22;4458726;32;33459;-82
2023/12/30 09:48:34;;;;;;;3.17;2.83;;;;;;;9.35;66.05;100197.66;4450301;32;34577;-82
2023/12/30 09:51:03;;;;;;;3.58;3.28;;;;;;;9.40;66.14;100175.53;4448265;32;33637;-82
2023/12/30 09:53:31;;;;;;;3.30;1.95;;;;;;;9.45;66.35;100189.41;4453025;32;32290;-82
2023/12/30 09:55:59;;;;;;;2.00;1.83;;;;;;;9.40;66.21;100183.44;4434254;32;33127;-82
2023/12/30 09:58:27;;;;;;;2.90;2.67;;;;;;;9.63;65.77;100174.75;4445434;32;34940;-82
2023/12/30 10:00:54;;;;;;;3.83;3.45;;;;;;;9.66;65.78;100176.44;4446597;32;34494;-82
2023/12/30 10:03:23;;;;;;;1.90;1.75;;;;;;;9.85;65.40;100169.59;4461323;32;33233;-82
2023/12/30 10:05:51;;;;;;;1.92;1.83;;;;;;;9.74;66.34;100169.13;4460944;32;32795;-82
2023/12/30 10:08:19;;;;;;;1.42;1.42;;;;;;;10.20;65.08;100154.28;4458181;32;33794;-82
2023/12/30 10:10:51;;;;;;;3.37;1.95;;;;;;;10.48;63.83;100162.94;4448766;32;34442;-82
2023/12/30 10:13:21;;;;;;;1.33;0.60;;;;;;;10.37;63.59;100165.13;4458692;32;33160;-82
2023/12/30 10:15:50;;;;;;;0.90;0.77;;;;;;;10.67;62.34;100151.69;4448035;32;32677;-82
2023/12/30 10:18:17;;;;;;;0.88;0.88;;;;;;;10.86;60.76;100155.31;4438562;32;34570;-82
2023/12/30 10:20:46;;;;;;;1.08;1.02;;;;;;;11.07;60.02;100151.00;4453002;32;32967;-82
2023/12/30 10:23:14;;;;;;;2.42;2.12;;;;;;;11.21;59.29;100140.72;4462516;32;31676;-83
2023/12/30 10:25:42;;;;;;;2.25;2.03;;;;;;;11.17;58.75;100147.06;4449486;32;33003;-79
2023/12/30 10:28:10;;;;;;;0.62;0.62;;;;;;;11.48;57.94;100151.91;4460808;32;34099;-80
2023/12/30 10:30:38;;;;;;;1.95;1.80;;;;;;;11.39;57.78;100152.31;4440196;32;33116;-80
2023/12/30 10:33:14;;;;;;;1.23;1.12;;;;;;;11.40;56.94;100148.75;4471351;32;33030;-80
2023/12/30 10:35:42;;;;;;;2.10;1.42;;;;;;;11.71;55.76;100147.44;4452511;32;33859;-80
2023/12/30 10:38:12;;;;;;;3.15;1.75;;;;;;;12.07;55.35;100133.59;4454731;32;34879;-80
2023/12/30 10:40:40;;;;;;;0.77;0.77;;;;;;;12.10;55.54;100139.59;4462624;32;32546;-80
2023/12/30 10:43:09;;;;;;;2.00;1.42;;;;;;;12.41;55.08;100132.91;4451391;32;32458;-80
2023/12/30 10:45:37;;;;;;;1.55;0.68;;;;;;;12.66;53.83;100127.34;4459904;32;33897;-80
2023/12/30 10:48:08;;;;;;;1.40;1.33;;;;;;;12.53;53.92;100138.53;4451668;32;34718;-80
2023/12/30 10:50:37;;;;;;;;;;;;;;;13.05;52.05;100130.75;4464744;32;34214;-80
2023/12/30 10:53:11;;;;;;;1.30;1.20;;;;;;;13.00;52.75;100116.81;4449940;32;33407;-80
2023/12/30 10:55:48;;;;;;;1.37;1.25;;;;;;;13.01;53.18;100123.88;4448617;32;33684;-80
2023/12/30 10:58:20;;;;;;;1.65;1.42;;;;;;;13.10;53.00;100117.25;4460840;32;33868;-80
2023/12/30 11:00:53;;;;;;;1.85;1.58;;;;;;;13.18;52.74;100122.19;4460688;32;35387;-81
2023/12/30 11:03:21;;;;;;;5.20;1.77;;;;;;;13.40;52.89;100109.59;4434831;32;33178;-80
2023/12/30 11:06:01;;;;;;;2.30;2.15;;;;;;;13.43;53.29;100108.56;4459542;32;33350;-80
2023/12/30 11:08:29;;;;;;;2.42;1.50;;;;;;;13.93;50.80;100103.31;4460724;32;33661;-80
2023/12/30 11:10:59;;;;;;;0.70;0.70;;;;;;;14.17;50.31;100100.31;4458942;32;33166;-79
2023/12/30 11:13:34;;;;;;;0.50;0.50;;;;;;;14.15;50.48;100096.84;4449637;32;33184;-80
2023/12/30 11:16:19;;;;;;;1.77;1.08;;;;;;;14.30;49.56;100093.41;4448431;32;32385;-80
2023/12/30 11:18:55;;;;;;;2.20;1.00;;;;;;;14.05;50.43;100100.03;4458334;32;33234;-80
2023/12/30 11:21:42;;;;;;;1.50;1.40;;;;;;;14.02;50.10;100100.19;4448345;32;35221;-80
2023/12/30 11:24:11;;;;;;;1.98;1.52;;;;;;;13.99;49.93;100100.34;4440418;32;32817;-80
2023/12/30 11:26:41;;;;;;;1.50;1.37;;;;;;;13.78;50.18;100099.69;4451878;32;33502;-80
2023/12/30 11:29:18;;;;;;;1.48;0.65;;;;;;;13.62;51.08;100097.87;4451095;32;33119;-80
2023/12/30 11:31:47;;;;;;;0.55;0.55;;;;;;;13.85;49.72;100089.59;4462356;32;34201;-80
2023/12/30 11:34:15;;;;;;;0.62;0.37;;;;;;;13.55;51.15;100087.59;4448246;32;32672;-80
2023/12/30 11:36:46;;;;;;;1.90;1.70;;;;;;;13.60;51.34;100087.38;4449173;32;34151;-80
2023/12/30 11:39:38;;;;;;;5.82;1.55;;;;;;;13.96;49.31;100086.38;4461435;32;33902;-80